Time;durP1;ratioP1;P1;durP2;ratioP2;P2;SDS_P1;SDS_P2;PMS_P1;PMS_P2;Temp;Humidity;BMP_temperature;BMP_pressure;BME280_temperature;BME280_humidity;BME280_pressure;Samples;Min_cycle;Max_cycle;Signal;HPM_P1;HPM_P2
2022/02/06 00:03:58;;;;;;;;;3.00;3.00;;;;;;;;2;233237541;233237541;-85
2022/02/06 00:12:52;;;;;;;;;2.00;2.00;;;;;;;;2;272268394;272268394;-84
2022/02/06 00:21:12;;;;;;;;;1.00;1.00;;;;;;;;2;234070768;234070768;-86
2022/02/06 00:47:50;;;;;;;;;1.00;1.00;;;;;;;;2;279081236;279081236;-87
2022/02/06 00:56:05;;;;;;;;;3.00;3.00;;;;;;;;2;234070134;234070134;-86
2022/02/06 01:05:06;;;;;;;;;2.00;2.00;;;;;;;;2;279079833;279079833;-86
2022/02/06 01:21:59;;;;;;;;;2.50;2.50;;;;;;;;2;260750499;260750499;-85
2022/02/06 01:25:59;;;;;;;;;2.00;2.00;;;;;;;;2;214565087;214565087;-85
2022/02/06 01:29:03;;;;;;;;;11.00;3.00;;;;;;;;2;171145527;171145527;-85
2022/02/06 01:33:58;;;;;;;;;3.00;3.00;;;;;;;;2;234069475;234069475;-84
2022/02/06 01:37:59;;;;;;;;;1.50;1.50;;;;;;;;2;227781752;227781752;-85
2022/02/06 01:46:27;;;;;;;;;1.50;1.50;;;;;;;;2;234069285;234069285;-85
2022/02/06 02:08:48;;;;;;;;;2.50;2.50;;;;;;;;343492;22;232003988;-85
2022/02/06 02:25:12;;;;;;;;;0.00;0.00;;;;;;;;2;261076735;261076735;-85
2022/02/06 02:50:54;;;;;;;;;4.00;4.00;;;;;;;;2;261077682;261077682;-84
2022/02/06 03:08:20;;;;;;;;;12.50;1.50;;;;;;;;2;261076211;261076211;-84
2022/02/06 03:17:33;;;;;;;;;2.50;2.50;;;;;;;;2;261072064;261072064;-84
2022/02/06 03:25:55;;;;;;;;;12.50;1.50;;;;;;;;2;261077036;261077036;-84
2022/02/06 03:34:55;;;;;;;;;0.00;0.00;;;;;;;;2;261074627;261074627;-84
2022/02/06 03:51:59;;;;;;;;;0.50;0.50;;;;;;;;2;261075739;261075739;-84
2022/02/06 04:00:15;;;;;;;;;1.00;1.00;;;;;;;;2;261074645;261074645;-84
2022/02/06 04:09:21;;;;;;;;;3.00;3.00;;;;;;;;2;261076839;261076839;-84
2022/02/06 04:17:44;;;;;;;;;4.50;4.50;;;;;;;;2;261074184;261074184;-84
2022/02/06 04:26:43;;;;;;;;;4.50;4.50;;;;;;;;2;259910678;259910678;-84
2022/02/06 04:34:59;;;;;;;;;3.00;3.00;;;;;;;;2;261077949;261077949;-83
2022/02/06 04:44:19;;;;;;;;;2.00;2.00;;;;;;;;2;261075280;261075280;-84
2022/02/06 05:20:19;;;;;;;;;0.00;0.00;;;;;;;;2;261075248;261075248;-83
2022/02/06 05:37:32;;;;;;;;;1.50;1.50;;;;;;;;2;260454309;260454309;-83
2022/02/06 05:45:48;;;;;;;;;0.50;0.50;;;;;;;;2;261075113;261075113;-83
2022/02/06 05:54:48;;;;;;;;;13.00;1.00;;;;;;;;2;261072182;261072182;-82
2022/02/06 06:03:08;;;;;;;;;1.00;1.00;;;;;;;;2;261074094;261074094;-82
2022/02/06 06:12:08;;;;;;;;;1.00;1.00;;;;;;;;2;261075911;261075911;-85
2022/02/06 06:20:27;;;;;;;;;1.00;1.00;;;;;;;;2;261076086;261076086;-85
2022/02/06 06:29:27;;;;;;;;;0.00;0.00;;;;;;;;2;261075583;261075583;-83
2022/02/06 06:37:43;;;;;;;;;13.00;1.00;;;;;;;;2;261078517;261078517;-83
2022/02/06 06:46:40;;;;;;;;;2.50;2.50;;;;;;;;2;258289196;258289196;-83
2022/02/06 06:55:04;;;;;;;;;1.00;1.00;;;;;;;;2;261070444;261070444;-83
2022/02/06 07:04:04;;;;;;;;;0.00;0.00;;;;;;;;2;261065781;261065781;-84
2022/02/06 07:12:20;;;;;;;;;0.00;0.00;;;;;;;;2;261075541;261075541;-84
2022/02/06 07:21:20;;;;;;;;;0.50;0.50;;;;;;;;2;261077169;261077169;-84
2022/02/06 07:29:35;;;;;;;;;1.50;1.50;;;;;;;;2;261074885;261074885;-84
2022/02/06 07:38:36;;;;;;;;;0.00;0.00;;;;;;;;2;261075291;261075291;-84
2022/02/06 07:47:00;;;;;;;;;3.50;2.00;;;;;;;;2;261076331;261076331;-84
2022/02/06 07:56:01;;;;;;;;;0.50;0.50;;;;;;;;2;261076027;261076027;-84
2022/02/06 08:04:16;;;;;;;;;0.50;0.50;;;;;;;;2;261077046;261077046;-84
2022/02/06 08:13:25;;;;;;;;;0.50;0.50;;;;;;;;2;258875137;258875137;-84
2022/02/06 08:21:40;;;;;;;;;1.00;1.00;;;;;;;;2;261075618;261075618;-84
2022/02/06 08:30:42;;;;;;;;;1.00;1.00;;;;;;;;2;260963242;260963242;-84
2022/02/06 08:38:55;;;;;;;;;0.50;0.50;;;;;;;;2;259047761;259047761;-83
2022/02/06 08:47:56;;;;;;;;;0.50;0.50;;;;;;;;2;261078921;261078921;-83
2022/02/06 08:56:11;;;;;;;;;2.00;0.00;;;;;;;;2;260964655;260964655;-83
2022/02/06 09:05:12;;;;;;;;;0.00;0.00;;;;;;;;2;261077223;261077223;-83
2022/02/06 09:13:28;;;;;;;;;0.00;0.00;;;;;;;;2;261074438;261074438;-84
2022/02/06 09:22:28;;;;;;;;;1.50;1.50;;;;;;;;2;261078005;261078005;-82
2022/02/06 09:30:43;;;;;;;;;4.00;1.00;;;;;;;;2;261080416;261080416;-83
2022/02/06 09:39:44;;;;;;;;;3.50;1.50;;;;;;;;2;261078015;261078015;-82
2022/02/06 09:48:00;;;;;;;;;0.50;0.50;;;;;;;;2;261078804;261078804;-82
2022/02/06 09:57:10;;;;;;;;;10.00;2.00;;;;;;;;2;261075410;261075410;-82
2022/02/06 10:05:31;;;;;;;;;0.00;0.00;;;;;;;;2;261077204;261077204;-82
2022/02/06 10:11:09;;;;;;;;;1.00;1.00;;;;;;;;2;261077502;261077502;-82
2022/02/06 10:19:24;;;;;;;;;0.00;0.00;;;;;;;;2;261078200;261078200;-82
2022/02/06 10:28:39;;;;;;;;;4.00;0.50;;;;;;;;2;261078679;261078679;-81
2022/02/06 10:37:12;;;;;;;;;2.00;2.00;;;;;;;;2;261077739;261077739;-82
2022/02/06 10:46:13;;;;;;;;;4.00;1.00;;;;;;;;2;261076359;261076359;-81
2022/02/06 10:54:28;;;;;;;;;0.00;0.00;;;;;;;;2;261074238;261074238;-82
2022/02/06 11:03:33;;;;;;;;;0.50;0.50;;;;;;;;2;261079308;261079308;-81
2022/02/06 11:11:49;;;;;;;;;5.00;1.00;;;;;;;;2;261077176;261077176;-81
2022/02/06 11:20:53;;;;;;;;;0.50;0.50;;;;;;;;2;261078111;261078111;-81
2022/02/06 11:29:10;;;;;;;;;0.50;0.50;;;;;;;;2;261074711;261074711;-81
2022/02/06 11:47:03;;;;;;;;;4.00;0.50;;;;;;;;2;261079539;261079539;-82
2022/02/06 11:56:19;;;;;;;;;4.50;4.50;;;;;;;;2;261079644;261079644;-82
2022/02/06 12:04:35;;;;;;;;;0.50;0.50;;;;;;;;2;261078555;261078555;-80
2022/02/06 12:13:37;;;;;;;;;1.00;1.00;;;;;;;;2;261076096;261076096;-83
2022/02/06 12:21:53;;;;;;;;;0.50;0.50;;;;;;;;2;261075621;261075621;-80
2022/02/06 12:30:55;;;;;;;;;4.00;4.00;;;;;;;;2;261078960;261078960;-80
2022/02/06 12:39:10;;;;;;;;;3.00;3.00;;;;;;;;2;261076805;261076805;-81
2022/02/06 12:48:12;;;;;;;;;3.50;3.50;;;;;;;;2;261082789;261082789;-81
2022/02/06 12:56:29;;;;;;;;;0.00;0.00;;;;;;;;2;261076654;261076654;-82
2022/02/06 13:05:29;;;;;;;;;0.00;0.00;;;;;;;;2;261077769;261077769;-82
2022/02/06 13:14:08;;;;;;;;;2.00;2.00;;;;;;;;2;261080172;261080172;-83
2022/02/06 13:23:26;;;;;;;;;0.00;0.00;;;;;;;;2;261075080;261075080;-83
2022/02/06 13:32:12;;;;;;;;;4.50;0.50;;;;;;;;2;261078338;261078338;-82
2022/02/06 13:41:12;;;;;;;;;2.50;2.50;;;;;;;;2;261078977;261078977;-82
2022/02/06 13:49:36;;;;;;;;;0.50;0.50;;;;;;;;2;261075818;261075818;-82
2022/02/06 13:58:37;;;;;;;;;1.50;1.50;;;;;;;;2;261077479;261077479;-82
2022/02/06 14:07:03;;;;;;;;;0.00;0.00;;;;;;;;2;261075646;261075646;-82
2022/02/06 14:16:05;;;;;;;;;0.00;0.00;;;;;;;;2;261076022;261076022;-81
2022/02/06 14:24:20;;;;;;;;;3.00;3.00;;;;;;;;2;261075041;261075041;-81
2022/02/06 14:33:25;;;;;;;;;9.50;0.50;;;;;;;;2;261076388;261076388;-81
2022/02/06 14:41:58;;;;;;;;;1.00;1.00;;;;;;;;2;261082866;261082866;-81
2022/02/06 14:50:59;;;;;;;;;3.00;3.00;;;;;;;;2;261074808;261074808;-79
2022/02/06 14:59:15;;;;;;;;;0.00;0.00;;;;;;;;2;261071770;261071770;-81
2022/02/06 15:11:35;;;;;;;;;1.00;1.00;;;;;;;;2;261077544;261077544;-81
2022/02/06 15:19:51;;;;;;;;;1.50;1.50;;;;;;;;2;261081428;261081428;-81
2022/02/06 15:28:51;;;;;;;;;0.50;0.50;;;;;;;;2;261082019;261082019;-81
2022/02/06 15:37:07;;;;;;;;;3.00;3.00;;;;;;;;2;261079875;261079875;-80
2022/02/06 15:46:08;;;;;;;;;0.50;0.50;;;;;;;;2;261078553;261078553;-83
2022/02/06 15:54:23;;;;;;;;;1.00;1.00;;;;;;;;2;261079640;261079640;-84
2022/02/06 16:03:24;;;;;;;;;1.50;1.50;;;;;;;;2;261080146;261080146;-82
2022/02/06 16:11:39;;;;;;;;;0.50;0.50;;;;;;;;2;261077638;261077638;-82
2022/02/06 16:20:40;;;;;;;;;11.50;0.50;;;;;;;;2;261076680;261076680;-81
2022/02/06 16:28:57;;;;;;;;;0.00;0.00;;;;;;;;2;261076786;261076786;-81
2022/02/06 16:37:58;;;;;;;;;0.00;0.00;;;;;;;;2;261076159;261076159;-81
2022/02/06 16:46:16;;;;;;;;;5.00;1.00;;;;;;;;2;261073462;261073462;-80
2022/02/06 16:55:17;;;;;;;;;2.50;2.50;;;;;;;;2;261078346;261078346;-80
2022/02/06 17:03:33;;;;;;;;;0.00;0.00;;;;;;;;2;261074956;261074956;-80
2022/02/06 17:12:33;;;;;;;;;1.50;1.50;;;;;;;;2;261075387;261075387;-81
2022/02/06 17:20:49;;;;;;;;;6.00;6.00;;;;;;;;2;261078404;261078404;-82
2022/02/06 17:29:49;;;;;;;;;6.00;6.00;;;;;;;;2;261075046;261075046;-82
2022/02/06 17:38:05;;;;;;;;;3.50;3.50;;;;;;;;2;261079539;261079539;-82
2022/02/06 17:47:05;;;;;;;;;7.50;7.50;;;;;;;;2;261077435;261077435;-83
2022/02/06 17:55:21;;;;;;;;;6.00;6.00;;;;;;;;2;261075769;261075769;-83
2022/02/06 18:04:21;;;;;;;;;2.00;2.00;;;;;;;;2;261078031;261078031;-82
2022/02/06 18:12:34;;;;;;;;;2.00;2.00;;;;;;;;2;261078958;261078958;-82
2022/02/06 18:21:34;;;;;;;;;3.00;1.00;;;;;;;;2;261079470;261079470;-82
2022/02/06 18:29:51;;;;;;;;;4.00;2.50;;;;;;;;2;261077084;261077084;-83
2022/02/06 18:38:53;;;;;;;;;1.50;1.50;;;;;;;;2;261073651;261073651;-82
2022/02/06 18:47:08;;;;;;;;;3.00;3.00;;;;;;;;2;261079957;261079957;-82
2022/02/06 18:56:09;;;;;;;;;4.00;4.00;;;;;;;;2;261079509;261079509;-82
2022/02/06 19:04:25;;;;;;;;;1.50;1.50;;;;;;;;2;261075386;261075386;-82
2022/02/06 19:13:26;;;;;;;;;12.50;1.00;;;;;;;;2;261078276;261078276;-83
2022/02/06 19:21:42;;;;;;;;;0.50;0.50;;;;;;;;2;261074083;261074083;-82
2022/02/06 19:30:42;;;;;;;;;3.00;3.00;;;;;;;;2;261078755;261078755;-83
2022/02/06 19:38:58;;;;;;;;;14.00;2.00;;;;;;;;2;261080347;261080347;-83
2022/02/06 19:48:00;;;;;;;;;1.00;1.00;;;;;;;;2;261080741;261080741;-82
2022/02/06 19:56:15;;;;;;;;;1.00;1.00;;;;;;;;2;261079476;261079476;-82
2022/02/06 20:05:16;;;;;;;;;0.00;0.00;;;;;;;;2;261074720;261074720;-81
2022/02/06 20:13:37;;;;;;;;;2.00;0.50;;;;;;;;2;261080332;261080332;-81
2022/02/06 20:22:39;;;;;;;;;1.50;1.50;;;;;;;;2;261076427;261076427;-79
2022/02/06 20:30:54;;;;;;;;;0.00;0.00;;;;;;;;2;261079516;261079516;-79
2022/02/06 20:39:55;;;;;;;;;0.00;0.00;;;;;;;;2;261079111;261079111;-81
2022/02/06 20:48:10;;;;;;;;;0.50;0.50;;;;;;;;2;261075715;261075715;-80
2022/02/06 20:57:11;;;;;;;;;0.50;0.50;;;;;;;;2;261078693;261078693;-80
2022/02/06 21:05:26;;;;;;;;;0.00;0.00;;;;;;;;2;261076091;261076091;-82
2022/02/06 21:14:27;;;;;;;;;0.00;0.00;;;;;;;;2;261073224;261073224;-80
2022/02/06 21:22:42;;;;;;;;;0.50;0.50;;;;;;;;2;261078280;261078280;-82
2022/02/06 21:31:42;;;;;;;;;0.50;0.50;;;;;;;;2;261080644;261080644;-81
2022/02/06 21:39:58;;;;;;;;;0.50;0.50;;;;;;;;2;261078241;261078241;-81
2022/02/06 21:48:59;;;;;;;;;2.00;2.00;;;;;;;;2;261077017;261077017;-80
2022/02/06 21:57:14;;;;;;;;;0.50;0.50;;;;;;;;2;261080956;261080956;-83
2022/02/06 22:06:23;;;;;;;;;0.00;0.00;;;;;;;;2;261078435;261078435;-85
2022/02/06 22:24:09;;;;;;;;;1.00;1.00;;;;;;;;2;261080324;261080324;-86
2022/02/06 22:32:24;;;;;;;;;3.00;3.00;;;;;;;;2;261080992;261080992;-86
2022/02/06 22:41:28;;;;;;;;;13.50;1.50;;;;;;;;2;261076303;261076303;-86
2022/02/06 22:49:43;;;;;;;;;2.00;0.50;;;;;;;;2;261075676;261075676;-86
2022/02/06 22:58:43;;;;;;;;;0.50;0.50;;;;;;;;2;261081835;261081835;-86
2022/02/06 23:06:59;;;;;;;;;1.50;1.50;;;;;;;;2;261077375;261077375;-87
2022/02/06 23:16:02;;;;;;;;;1.50;1.50;;;;;;;;2;261078453;261078453;-86
2022/02/06 23:24:18;;;;;;;;;2.50;0.00;;;;;;;;2;261079030;261079030;-86
2022/02/06 23:33:18;;;;;;;;;1.50;1.50;;;;;;;;2;261075375;261075375;-86
2022/02/06 23:41:37;;;;;;;;;0.50;0.50;;;;;;;;2;261077499;261077499;-86
2022/02/06 23:59:18;;;;;;;;;0.00;0.00;;;;;;;;2;261078723;261078723;-86
